createdAt,value
2023-04-04T00:00:54.650Z,3.90
2023-04-04T00:03:24.434Z,4.83
2023-04-04T00:05:53.169Z,4.17
2023-04-04T00:08:21.861Z,3.97
2023-04-04T00:10:50.201Z,2.50
2023-04-04T00:13:18.502Z,4.10
2023-04-04T00:15:47.029Z,3.57
2023-04-04T00:18:15.483Z,4.20
2023-04-04T00:20:45.030Z,2.60
2023-04-04T00:23:13.492Z,3.60
2023-04-04T00:25:41.888Z,3.13
2023-04-04T00:28:10.151Z,5.13
2023-04-04T00:30:39.606Z,5.10
2023-04-04T00:33:08.125Z,3.53
2023-04-04T00:35:37.058Z,3.43
2023-04-04T00:38:07.638Z,4.13
2023-04-04T00:40:41.872Z,3.87
2023-04-04T00:43:10.696Z,4.97
2023-04-04T00:45:39.001Z,6.63
2023-04-04T00:48:08.369Z,4.20
2023-04-04T00:50:37.780Z,2.47
2023-04-04T00:53:07.551Z,4.93
2023-04-04T00:55:39.771Z,3.83
2023-04-04T00:58:08.962Z,3.17
2023-04-04T01:00:38.680Z,3.33
2023-04-04T01:03:10.302Z,3.73
2023-04-04T01:05:38.884Z,4.80
2023-04-04T01:08:08.798Z,3.83
2023-04-04T01:10:37.804Z,4.23
2023-04-04T01:13:06.651Z,4.63
2023-04-04T01:15:34.872Z,4.60
2023-04-04T01:18:04.981Z,3.70
2023-04-04T01:20:38.300Z,4.47
2023-04-04T01:23:08.348Z,3.70
2023-04-04T01:25:38.312Z,3.73
2023-04-04T01:28:11.025Z,5.63
2023-04-04T01:30:41.292Z,5.07
2023-04-04T01:33:20.446Z,4.67
2023-04-04T01:35:58.805Z,5.57
2023-04-04T01:38:34.019Z,7.47
2023-04-04T01:41:07.773Z,9.63
2023-04-04T01:43:37.725Z,7.57
2023-04-04T01:46:07.300Z,5.83
2023-04-04T01:48:37.345Z,7.03
2023-04-04T01:51:08.620Z,5.47
2023-04-04T01:53:37.406Z,3.47
2023-04-04T01:56:07.188Z,5.10
2023-04-04T01:58:36.509Z,2.90
2023-04-04T02:01:04.773Z,4.97
2023-04-04T02:03:33.167Z,5.37
2023-04-04T02:06:01.732Z,3.90
2023-04-04T02:08:30.091Z,3.53
2023-04-04T02:10:59.676Z,3.70
2023-04-04T02:13:29.915Z,4.33
2023-04-04T02:16:00.200Z,3.77
2023-04-04T02:18:28.422Z,3.37
2023-04-04T02:20:57.795Z,3.47
2023-04-04T02:23:26.151Z,4.57
2023-04-04T02:25:54.478Z,3.30
2023-04-04T02:28:22.720Z,4.47
2023-04-04T02:30:52.441Z,3.83
2023-04-04T02:33:20.663Z,3.57
2023-04-04T02:35:50.039Z,3.60
2023-04-04T02:38:18.320Z,5.00
2023-04-04T02:40:47.928Z,3.90
2023-04-04T02:43:16.726Z,3.80
2023-04-04T02:45:45.458Z,3.73
2023-04-04T02:48:25.826Z,3.77
2023-04-04T02:50:56.273Z,4.10
2023-04-04T02:53:24.604Z,4.73
2023-04-04T02:55:55.768Z,4.67
2023-04-04T02:58:24.093Z,4.03
2023-04-04T03:00:55.861Z,5.30
2023-04-04T03:03:29.968Z,3.20
2023-04-04T03:06:00.211Z,5.13
2023-04-04T03:08:29.150Z,4.57
2023-04-04T03:11:00.042Z,4.90
2023-04-04T03:13:28.615Z,4.80
2023-04-04T03:16:02.681Z,4.33
2023-04-04T03:18:36.076Z,3.67
2023-04-04T03:21:04.853Z,5.93
2023-04-04T03:23:33.103Z,5.57
2023-04-04T03:26:02.201Z,5.67
2023-04-04T03:28:30.692Z,4.60
2023-04-04T03:31:05.141Z,5.10
2023-04-04T03:33:38.371Z,4.17
2023-04-04T03:36:12.553Z,4.53
2023-04-04T03:38:41.071Z,5.13
2023-04-04T03:41:11.208Z,4.23
2023-04-04T03:43:39.456Z,6.30
2023-04-04T03:46:08.332Z,5.27
2023-04-04T03:48:38.229Z,6.20
2023-04-04T03:51:09.552Z,5.90
2023-04-04T03:53:38.815Z,5.60
2023-04-04T03:56:07.232Z,5.00
2023-04-04T03:58:37.187Z,5.63
2023-04-04T04:01:05.457Z,3.90
2023-04-04T04:03:33.916Z,5.00
2023-04-04T04:06:03.666Z,6.27
2023-04-04T04:08:31.866Z,5.93
2023-04-04T04:11:06.072Z,6.27
2023-04-04T04:13:36.030Z,4.47
2023-04-04T04:16:04.804Z,4.60
2023-04-04T04:18:33.538Z,5.07
2023-04-04T04:21:04.085Z,6.13
2023-04-04T04:23:33.408Z,6.10
2023-04-04T04:26:01.796Z,6.43
2023-04-04T04:28:34.136Z,8.33
2023-04-04T04:31:07.972Z,4.87
2023-04-04T04:33:42.486Z,4.70
2023-04-04T04:36:12.629Z,5.67
2023-04-04T04:38:50.016Z,6.03
2023-04-04T04:41:18.352Z,8.00
2023-04-04T04:43:50.541Z,6.07
2023-04-04T04:46:18.796Z,4.87
2023-04-04T04:48:47.488Z,5.03
2023-04-04T04:51:17.839Z,7.47
2023-04-04T04:53:51.772Z,4.47
2023-04-04T04:56:20.672Z,4.17
2023-04-04T04:58:51.742Z,3.87
2023-04-04T05:01:26.838Z,4.33
2023-04-04T05:03:57.299Z,4.03
2023-04-04T05:06:34.804Z,4.20
2023-04-04T05:09:04.082Z,6.27
2023-04-04T05:11:38.464Z,4.83
2023-04-04T05:14:09.034Z,4.13
2023-04-04T05:16:42.830Z,7.30
2023-04-04T05:19:11.120Z,5.73
2023-04-04T05:21:47.547Z,4.77
2023-04-04T05:24:27.580Z,5.27
2023-04-04T05:26:56.286Z,5.77
2023-04-04T05:29:24.870Z,5.23
2023-04-04T05:31:53.678Z,5.63
2023-04-04T05:34:24.158Z,5.60
2023-04-04T05:36:54.416Z,5.77
2023-04-04T05:39:23.045Z,6.80
2023-04-04T05:42:02.487Z,7.17
2023-04-04T05:44:34.933Z,5.73
2023-04-04T05:47:03.270Z,6.63
2023-04-04T05:49:31.610Z,4.63
2023-04-04T05:52:03.711Z,4.83
2023-04-04T05:54:33.084Z,5.53
2023-04-04T05:57:05.057Z,8.27
2023-04-04T05:59:42.193Z,9.03
2023-04-04T06:02:13.457Z,6.27
2023-04-04T06:04:46.467Z,4.47
2023-04-04T06:07:21.121Z,5.57
2023-04-04T06:09:51.958Z,6.30
2023-04-04T06:12:21.106Z,5.43
2023-04-04T06:14:49.729Z,7.57
2023-04-04T06:17:21.608Z,8.73
2023-04-04T06:19:49.783Z,6.17
2023-04-04T06:22:18.681Z,7.20
2023-04-04T06:24:52.085Z,9.20
2023-04-04T06:27:20.900Z,6.67
2023-04-04T06:29:49.274Z,6.97
2023-04-04T06:32:21.838Z,5.07
2023-04-04T06:34:50.308Z,5.90
2023-04-04T06:37:24.643Z,7.33
2023-04-04T06:40:00.281Z,4.70
2023-04-04T06:42:29.744Z,5.00
2023-04-04T06:45:03.580Z,5.33
2023-04-04T06:47:33.162Z,7.63
2023-04-04T06:50:03.333Z,4.00
2023-04-04T06:52:31.553Z,5.33
2023-04-04T06:55:01.172Z,6.43
2023-04-04T06:57:29.344Z,4.73
2023-04-04T06:59:57.657Z,4.67
2023-04-04T07:02:25.952Z,4.10
2023-04-04T07:04:54.150Z,5.13
2023-04-04T07:07:22.474Z,4.73
2023-04-04T07:09:50.817Z,4.80
2023-04-04T07:12:20.407Z,6.40
2023-04-04T07:14:48.647Z,7.77
2023-04-04T07:17:24.206Z,11.10
2023-04-04T07:19:53.580Z,5.30
2023-04-04T07:22:21.778Z,10.23
2023-04-04T07:24:49.902Z,6.30
2023-04-04T07:27:18.090Z,6.23
2023-04-04T07:29:47.607Z,5.13
2023-04-04T07:32:16.091Z,5.00
2023-04-04T07:34:44.569Z,5.17
2023-04-04T07:37:12.873Z,4.93
2023-04-04T07:39:41.984Z,3.63
2023-04-04T07:42:10.316Z,5.73
2023-04-04T07:44:38.520Z,7.27
2023-04-04T07:47:10.343Z,7.63
2023-04-04T07:49:38.843Z,6.03
2023-04-04T07:52:07.343Z,5.97
2023-04-04T07:54:35.566Z,8.13
2023-04-04T07:57:05.547Z,5.50
2023-04-04T07:59:33.766Z,4.17
2023-04-04T08:02:02.142Z,4.00
2023-04-04T08:04:31.838Z,5.77
2023-04-04T08:07:00.105Z,24.60
2023-04-04T08:09:34.381Z,4.40
2023-04-04T08:12:02.657Z,3.33
2023-04-04T08:14:31.386Z,4.00
2023-04-04T08:16:59.591Z,3.90
2023-04-04T08:19:27.816Z,7.17
2023-04-04T08:21:57.767Z,6.70
2023-04-04T08:24:27.112Z,5.70
2023-04-04T08:27:04.563Z,6.63
2023-04-04T08:29:34.494Z,3.73
2023-04-04T08:32:02.803Z,13.23
2023-04-04T08:34:31.212Z,3.47
2023-04-04T08:37:00.691Z,10.50
2023-04-04T08:39:28.882Z,6.40
2023-04-04T08:42:02.694Z,5.63
2023-04-04T08:44:32.110Z,6.33
2023-04-04T08:47:01.241Z,6.17
2023-04-04T08:49:33.175Z,11.30
2023-04-04T08:52:04.698Z,6.73
2023-04-04T08:54:35.264Z,8.70
2023-04-04T08:57:04.114Z,4.00
2023-04-04T08:59:32.851Z,8.57
2023-04-04T09:02:06.666Z,6.20
2023-04-04T09:04:34.969Z,5.53
2023-04-04T09:07:06.212Z,12.27
2023-04-04T09:09:35.234Z,4.13
2023-04-04T09:12:04.345Z,8.00
2023-04-04T09:14:33.476Z,7.63
2023-04-04T09:17:01.789Z,8.07
2023-04-04T09:19:29.940Z,6.53
2023-04-04T09:21:59.005Z,5.50
2023-04-04T09:24:39.363Z,7.10
2023-04-04T09:27:09.578Z,4.97
2023-04-04T09:29:39.348Z,16.00
2023-04-04T09:32:10.077Z,6.23
2023-04-04T09:34:38.681Z,5.80
2023-04-04T09:37:08.098Z,5.17
2023-04-04T09:39:40.510Z,15.07
2023-04-04T09:42:09.703Z,4.10
2023-04-04T09:44:38.297Z,13.23
2023-04-04T09:49:59.748Z,5.63
2023-04-04T09:52:28.565Z,7.70
2023-04-04T09:54:59.922Z,7.63
2023-04-04T09:57:31.146Z,8.43
2023-04-04T10:00:01.362Z,5.30
2023-04-04T10:02:31.847Z,7.80
2023-04-04T10:07:33.636Z,3.57
2023-04-04T10:10:07.249Z,6.73
2023-04-04T10:12:35.719Z,5.53
2023-04-04T10:15:04.349Z,4.60
2023-04-04T10:17:38.815Z,10.97
2023-04-04T10:20:09.462Z,5.43
2023-04-04T10:22:39.086Z,4.87
2023-04-04T10:25:10.304Z,13.10
2023-04-04T10:27:38.962Z,6.00
2023-04-04T10:30:08.820Z,3.40
2023-04-04T10:32:45.981Z,4.43
2023-04-04T10:35:14.976Z,4.30
2023-04-04T10:37:46.750Z,5.00
2023-04-04T10:40:19.592Z,5.70
2023-04-04T10:42:48.254Z,5.67
2023-04-04T10:45:21.509Z,5.67
2023-04-04T10:47:51.791Z,3.77
2023-04-04T10:50:21.964Z,3.70
2023-04-04T10:52:51.624Z,6.10
2023-04-04T10:55:21.538Z,4.27
2023-04-04T10:57:52.931Z,4.67
2023-04-04T11:00:23.640Z,4.67
2023-04-04T11:02:57.269Z,3.43
2023-04-04T11:05:26.914Z,3.60
2023-04-04T11:10:36.230Z,4.67
2023-04-04T11:13:13.862Z,3.53
2023-04-04T11:15:56.970Z,7.10
2023-04-04T11:18:48.926Z,3.77
2023-04-04T11:21:19.930Z,6.17
2023-04-04T11:24:19.288Z,21.23
2023-04-04T11:26:48.921Z,4.20
2023-04-04T11:29:53.392Z,3.67
2023-04-04T11:32:50.115Z,4.78
2023-04-04T11:35:25.022Z,3.60
2023-04-04T11:38:05.453Z,7.07
2023-04-04T11:40:39.151Z,10.05
2023-04-04T11:43:13.422Z,6.20
2023-04-04T11:45:45.795Z,9.18
2023-04-04T11:48:17.156Z,4.38
2023-04-04T11:50:49.793Z,5.03
2023-04-04T11:53:18.289Z,4.28
2023-04-04T11:55:50.404Z,4.65
2023-04-04T11:58:20.706Z,4.25
2023-04-04T12:00:49.079Z,3.40
2023-04-04T12:03:18.771Z,3.08
2023-04-04T12:05:48.785Z,4.40
2023-04-04T12:08:18.101Z,4.30
2023-04-04T12:10:46.378Z,4.43
2023-04-04T12:13:14.682Z,3.72
2023-04-04T12:15:45.104Z,3.85
2023-04-04T12:18:22.966Z,4.60
2023-04-04T12:20:52.899Z,10.05
2023-04-04T12:23:21.895Z,4.47
2023-04-04T12:25:54.814Z,5.20
2023-04-04T12:28:23.535Z,3.25
2023-04-04T12:30:53.376Z,4.57
2023-04-04T12:33:22.303Z,4.38
2023-04-04T12:35:54.820Z,3.10
2023-04-04T12:38:23.504Z,4.10
2023-04-04T12:40:52.924Z,4.05
2023-04-04T12:43:21.756Z,2.80
2023-04-04T12:45:52.869Z,3.35
2023-04-04T12:48:22.986Z,3.03
2023-04-04T12:50:53.420Z,4.03
2023-04-04T12:55:58.057Z,4.45
2023-04-04T12:58:28.376Z,8.25
2023-04-04T13:01:02.053Z,18.02
2023-04-04T13:03:30.459Z,3.50
2023-04-04T13:06:00.002Z,3.80
2023-04-04T13:08:28.400Z,6.63
2023-04-04T13:11:04.939Z,3.20
2023-04-04T13:13:38.849Z,3.15
2023-04-04T13:16:10.004Z,3.95
2023-04-04T13:18:41.868Z,3.20
2023-04-04T13:21:11.543Z,3.03
2023-04-04T13:23:41.029Z,6.47
2023-04-04T13:26:10.916Z,3.42
2023-04-04T13:28:39.740Z,8.75
2023-04-04T13:31:11.110Z,9.70
2023-04-04T13:33:40.342Z,7.63
2023-04-04T13:36:09.263Z,10.75
2023-04-04T13:38:37.516Z,3.53
2023-04-04T13:41:05.855Z,3.00
2023-04-04T13:43:34.082Z,3.33
2023-04-04T13:46:02.571Z,4.65
2023-04-04T13:48:32.235Z,4.32
2023-04-04T13:51:00.505Z,5.30
2023-04-04T13:53:28.630Z,3.55
2023-04-04T13:56:16.798Z,4.60
2023-04-04T13:58:45.927Z,3.50
2023-04-04T14:01:14.260Z,3.80
2023-04-04T14:03:43.964Z,4.05
2023-04-04T14:06:12.397Z,3.35
2023-04-04T14:08:40.604Z,3.30
2023-04-04T14:11:08.963Z,4.68
2023-04-04T14:13:37.308Z,4.80
2023-04-04T14:16:06.145Z,3.30
2023-04-04T14:18:34.745Z,3.00
2023-04-04T14:21:06.460Z,3.40
2023-04-04T14:23:34.719Z,6.18
2023-04-04T14:26:04.610Z,3.38
2023-04-04T14:28:33.668Z,4.28
2023-04-04T14:31:01.896Z,3.53
2023-04-04T14:33:30.120Z,3.63
2023-04-04T14:35:58.612Z,5.55
2023-04-04T14:38:28.331Z,5.38
2023-04-04T14:40:56.457Z,3.55
2023-04-04T14:43:24.657Z,3.85
2023-04-04T14:45:52.939Z,4.38
2023-04-04T14:48:21.425Z,3.83
2023-04-04T14:50:49.605Z,4.32
2023-04-04T14:53:18.416Z,3.72
2023-04-04T14:55:48.096Z,5.70
2023-04-04T14:58:16.637Z,3.35
2023-04-04T15:00:46.077Z,3.45
2023-04-04T15:03:14.301Z,3.35
2023-04-04T15:05:42.833Z,3.30
2023-04-04T15:08:11.431Z,4.45
2023-04-04T15:10:39.967Z,3.55
2023-04-04T15:13:10.101Z,6.28
2023-04-04T15:15:38.575Z,7.63
2023-04-04T15:18:07.015Z,5.32
2023-04-04T15:20:39.974Z,4.38
2023-04-04T15:23:08.727Z,5.78
2023-04-04T15:25:37.232Z,5.05
2023-04-04T15:28:05.445Z,5.85
2023-04-04T15:30:35.216Z,5.97
2023-04-04T15:33:03.487Z,5.28
2023-04-04T15:35:31.885Z,4.72
2023-04-04T15:38:00.225Z,6.68
2023-04-04T15:40:28.399Z,5.07
2023-04-04T15:42:57.115Z,5.15
2023-04-04T15:45:25.665Z,4.28
2023-04-04T15:47:55.272Z,4.97
2023-04-04T15:50:23.480Z,4.97
2023-04-04T15:52:51.660Z,4.13
2023-04-04T15:55:21.935Z,4.50
2023-04-04T15:57:50.577Z,4.68
2023-04-04T16:00:19.285Z,4.72
2023-04-04T16:02:47.741Z,4.95
2023-04-04T16:05:17.487Z,3.20
2023-04-04T16:07:45.864Z,3.83
2023-04-04T16:10:14.105Z,4.93
2023-04-04T16:12:42.309Z,4.68
2023-04-04T16:15:12.054Z,4.32
2023-04-04T16:17:40.322Z,5.30
2023-04-04T16:20:09.716Z,5.70
2023-04-04T16:22:39.463Z,5.68
2023-04-04T16:25:09.014Z,10.20
2023-04-04T16:27:37.226Z,4.15
2023-04-04T16:30:06.195Z,5.65
2023-04-04T16:32:34.618Z,4.93
2023-04-04T16:35:03.008Z,9.95
2023-04-04T16:37:31.561Z,6.70
2023-04-04T16:40:01.429Z,6.10
2023-04-04T16:42:29.768Z,9.88
2023-04-04T16:44:58.453Z,9.10
2023-04-04T16:47:27.667Z,9.68
2023-04-04T16:49:56.625Z,5.70
2023-04-04T16:52:25.068Z,4.00
2023-04-04T16:54:54.353Z,7.75
2023-04-04T16:57:24.070Z,6.95
2023-04-04T16:59:52.508Z,7.32
2023-04-04T17:02:20.948Z,4.90
2023-04-04T17:04:49.266Z,6.47
2023-04-04T17:07:17.627Z,5.60
2023-04-04T17:09:47.362Z,5.75
2023-04-04T17:12:16.949Z,4.93
2023-04-04T17:14:46.934Z,8.85
2023-04-04T17:17:15.504Z,8.85
2023-04-04T17:19:44.551Z,5.63
2023-04-04T17:22:13.303Z,5.05
2023-04-04T17:24:41.515Z,4.40
2023-04-04T17:27:09.975Z,4.53
2023-04-04T17:29:38.185Z,7.80
2023-04-04T17:32:07.856Z,19.97
2023-04-04T17:34:37.185Z,8.50
2023-04-04T17:37:06.049Z,6.93
2023-04-04T17:39:34.390Z,11.30
2023-04-04T17:42:03.313Z,8.97
2023-04-04T17:44:35.018Z,6.27
2023-04-04T17:47:03.236Z,34.70
2023-04-04T17:49:32.943Z,24.57
2023-04-04T17:52:04.005Z,13.97
2023-04-04T17:54:32.264Z,11.40
2023-04-04T17:57:00.528Z,9.07
2023-04-04T17:59:29.027Z,14.83
2023-04-04T18:01:57.982Z,14.60
2023-04-04T18:04:26.423Z,8.13
2023-04-04T18:06:56.064Z,8.73
2023-04-04T18:09:25.011Z,20.80
2023-04-04T18:11:53.753Z,16.67
2023-04-04T18:14:22.304Z,16.13
2023-04-04T18:16:50.696Z,10.57
2023-04-04T18:19:19.155Z,26.53
2023-04-04T18:21:49.055Z,15.13
2023-04-04T18:24:18.690Z,12.43
2023-04-04T18:26:46.887Z,9.37
2023-04-04T18:29:16.715Z,14.47
2023-04-04T18:31:45.059Z,11.47
2023-04-04T18:34:15.136Z,11.70
2023-04-04T18:36:43.802Z,9.60
2023-04-04T18:39:12.186Z,13.73
2023-04-04T18:41:41.970Z,9.30
2023-04-04T18:44:10.315Z,13.87
2023-04-04T18:46:39.746Z,11.03
2023-04-04T18:49:08.133Z,7.50
2023-04-04T18:51:36.807Z,9.23
2023-04-04T18:54:05.776Z,15.27
2023-04-04T18:56:34.122Z,11.97
2023-04-04T18:59:04.278Z,15.30
2023-04-04T19:01:33.691Z,18.73
2023-04-04T19:04:04.625Z,13.00
2023-04-04T19:06:36.944Z,9.07
2023-04-04T19:09:08.839Z,11.93
2023-04-04T19:11:38.993Z,9.53
2023-04-04T19:14:09.489Z,16.00
2023-04-04T19:16:38.437Z,8.93
2023-04-04T19:19:07.192Z,11.17
2023-04-04T19:21:35.952Z,8.27
2023-04-04T19:24:04.984Z,9.20
2023-04-04T19:26:33.740Z,11.33
2023-04-04T19:29:02.648Z,9.07
2023-04-04T19:31:34.367Z,10.43
2023-04-04T19:34:03.584Z,9.13
2023-04-04T19:36:36.652Z,15.40
2023-04-04T19:39:06.481Z,6.57
2023-04-04T19:41:37.521Z,8.13
2023-04-04T19:44:09.062Z,7.63
2023-04-04T19:46:39.062Z,7.83
2023-04-04T19:49:12.041Z,9.27
2023-04-04T19:51:49.900Z,9.63
2023-04-04T19:54:27.480Z,8.77
2023-04-04T19:57:02.379Z,7.10
2023-04-04T19:59:59.669Z,8.00
2023-04-04T20:02:54.437Z,7.83
2023-04-04T20:05:59.076Z,8.23
2023-04-04T20:08:36.773Z,11.43
2023-04-04T20:11:06.988Z,7.67
2023-04-04T20:13:37.294Z,13.17
2023-04-04T20:16:10.588Z,13.60
2023-04-04T20:18:42.428Z,14.63
2023-04-04T20:21:12.563Z,14.70
2023-04-04T20:23:53.374Z,12.33
2023-04-04T20:26:42.429Z,11.30
2023-04-04T20:29:12.990Z,10.00
2023-04-04T20:31:43.883Z,11.63
2023-04-04T20:34:41.377Z,11.27
2023-04-04T20:37:12.470Z,9.73
2023-04-04T20:39:47.985Z,11.80
2023-04-04T20:42:34.764Z,11.57
2023-04-04T20:45:32.908Z,12.07
2023-04-04T20:48:06.823Z,13.70
2023-04-04T20:50:47.512Z,16.13
2023-04-04T20:53:20.248Z,17.10
2023-04-04T20:55:50.373Z,11.80
2023-04-04T20:58:28.146Z,12.87
2023-04-04T21:00:58.770Z,12.67
2023-04-04T21:03:37.764Z,10.97
2023-04-04T21:06:16.354Z,10.87
2023-04-04T21:08:46.767Z,13.60
2023-04-04T21:11:18.991Z,13.13
2023-04-04T21:13:47.388Z,8.83
2023-04-04T21:16:17.720Z,9.67
2023-04-04T21:18:47.113Z,9.43
2023-04-04T21:21:18.812Z,10.03
2023-04-04T21:23:52.982Z,11.83
2023-04-04T21:26:29.526Z,9.00
2023-04-04T21:28:59.605Z,12.30
2023-04-04T21:31:30.741Z,13.93
2023-04-04T21:34:07.832Z,13.23
2023-04-04T21:36:37.547Z,10.50
2023-04-04T21:39:10.898Z,9.23
2023-04-04T21:41:39.507Z,8.27
2023-04-04T21:44:09.415Z,8.50
2023-04-04T21:46:39.681Z,9.07
2023-04-04T21:49:09.051Z,8.90
2023-04-04T21:51:38.678Z,17.03
2023-04-04T21:54:07.040Z,16.27
2023-04-04T21:56:35.839Z,18.80
2023-04-04T21:59:06.665Z,127.90
2023-04-04T22:01:35.098Z,216.60
2023-04-04T22:04:03.324Z,113.03
2023-04-04T22:06:31.752Z,224.10
2023-04-04T22:09:01.895Z,206.27
2023-04-04T22:11:30.515Z,110.87
2023-04-04T22:14:04.653Z,93.80
2023-04-04T22:16:36.942Z,98.33
2023-04-04T22:19:05.722Z,57.27
2023-04-04T22:21:36.601Z,37.77
2023-04-04T22:24:07.503Z,31.03
2023-04-04T22:26:35.945Z,22.93
2023-04-04T22:29:06.163Z,15.97
2023-04-04T22:31:35.213Z,18.10
2023-04-04T22:34:04.005Z,19.70
2023-04-04T22:36:34.384Z,18.60
2023-04-04T22:39:03.119Z,13.93
2023-04-04T22:41:32.950Z,12.93
2023-04-04T22:44:01.428Z,9.47
2023-04-04T22:46:30.010Z,9.40
2023-04-04T22:49:06.435Z,10.60
2023-04-04T22:51:45.405Z,10.70
2023-04-04T22:54:15.604Z,10.40
2023-04-04T22:56:45.544Z,11.80
2023-04-04T22:59:14.131Z,11.10
2023-04-04T23:01:42.781Z,12.13
2023-04-04T23:04:11.205Z,11.53
2023-04-04T23:06:39.551Z,15.20
2023-04-04T23:09:08.780Z,14.73
2023-04-04T23:11:37.648Z,11.90
2023-04-04T23:14:09.621Z,8.07
2023-04-04T23:16:38.473Z,7.63
2023-04-04T23:19:06.739Z,10.67
2023-04-04T23:21:35.049Z,8.67
2023-04-04T23:24:03.733Z,10.33
2023-04-04T23:26:32.624Z,11.17
2023-04-04T23:29:02.138Z,8.83
2023-04-04T23:31:31.857Z,9.80
2023-04-04T23:34:00.686Z,10.20
2023-04-04T23:36:29.168Z,12.20
2023-04-04T23:38:57.468Z,13.17
2023-04-04T23:41:26.334Z,11.23
2023-04-04T23:43:54.646Z,11.90
2023-04-04T23:46:23.954Z,14.00
2023-04-04T23:48:53.646Z,10.83
2023-04-04T23:51:22.138Z,10.07
2023-04-04T23:53:50.377Z,11.17
2023-04-04T23:56:18.588Z,11.93
2023-04-04T23:58:47.117Z,13.50
